This is the latest recevied weather packets stored in our database for station/object DB8NZ-11. If no packets are shown the sender has not sent any weather packets the latest 10 day(s).
| Time | Temp. | Humidity | Pressure | Rain* | Wind** | Luminosity | Snow |
|---|---|---|---|---|---|---|---|
| 1777671206 | 10.56° C | 58% | 1029.5 hPa | - | - | - | - |
| 1777670306 | 10.56° C | 58% | 1029.4 hPa | - | - | - | - |
| 1777669406 | 11.11° C | 57% | 1029.4 hPa | - | - | - | - |
| 1777668506 | 11.67° C | 56% | 1029.3 hPa | - | - | - | - |
| 1777667605 | 11.67° C | 53% | 1029.4 hPa | - | - | - | - |
| 1777666705 | 12.22° C | 52% | 1029.4 hPa | - | - | - | - |
| 1777665805 | 13.33° C | 51% | 1029.3 hPa | - | - | - | - |
| 1777664905 | 13.89° C | 49% | 1029.2 hPa | - | - | - | - |
| 1777664005 | 14.44° C | 47% | 1029.1 hPa | - | - | - | - |
| 1777663105 | 15.56° C | 45% | 1029.1 hPa | - | - | - | - |
| 1777662204 | 16.67° C | 42% | 1029 hPa | - | - | - | - |
| 1777661304 | 17.78° C | 42% | 1028.9 hPa | - | - | - | - |
| 1777660403 | 18.89° C | 37% | 1028.9 hPa | - | - | - | - |
| 1777659503 | 20.56° C | 33% | 1028.8 hPa | - | - | - | - |
| 1777658603 | 22.22° C | 26% | 1028.6 hPa | - | - | - | - |
| 1777657703 | 23.33° C | 24% | 1028.5 hPa | - | - | - | - |
| 1777656803 | 24.44° C | 23% | 1028.6 hPa | - | - | - | - |
| 1777655903 | 25° C | 22% | 1028.5 hPa | - | - | - | - |
| 1777655729 | 25° C | 22% | 1028.6 hPa | - | - | - | - |
| 1777654829 | 25° C | 22% | 1028.6 hPa | - | - | - | - |
| 1777653929 | 25.56° C | 22% | 1028.7 hPa | - | - | - | - |
| 1777653029 | 25° C | 21% | 1028.9 hPa | - | - | - | - |
| 1777652129 | 25.56° C | 21% | 1028.9 hPa | - | - | - | - |
| 1777651229 | 26.11° C | 20% | 1029.1 hPa | - | - | - | - |
| 1777650329 | 26.67° C | 20% | 1029.2 hPa | - | - | - | - |
* Rain since midnight (hover to see other rain measurements)
** Current wind speed in m/s (hover to see current wind gust speed)